< Typhoon 195814 1958 Season Typhoon 195816 >
Typhoon 195815 (ELSIE)
General InformationTrack Information on Google Maps || Disaster Info.ResourceGoogle EarthGE AnimationAtom FeedGeoJSON
Detalied Best Track (Time Zone = UTC)
Year Month Day Hour Lat. Long. Pressure (hPa) Wind (kt) Class Image Chart
1958 8 4 12 22.6 152.4 1006 0 2 -- Chart
1958 8 4 18 23.1 152.3 1004 0 2 -- Chart
1958 8 5 00 23.7 152.6 1002 0 9 -- Chart
1958 8 5 06 24.1 153.2 992 0 9 -- Chart
1958 8 5 12 24.6 153.8 985 0 9 -- Chart
1958 8 5 18 25.0 154.7 985 0 9 -- Chart
1958 8 6 00 25.4 155.3 985 0 9 -- Chart
1958 8 6 06 26.1 155.9 980 0 9 -- Chart
1958 8 6 12 27.0 156.8 975 0 9 -- Chart
1958 8 6 18 28.0 157.7 970 0 9 -- Chart
1958 8 7 00 29.1 158.2 970 0 9 -- Chart
1958 8 7 06 30.7 159.7 965 0 9 -- Chart
1958 8 7 12 32.5 160.6 965 0 9 -- Chart
1958 8 7 18 34.4 161.5 965 0 9 -- Chart
1958 8 8 00 36.4 162.1 970 0 9 -- Chart
1958 8 8 06 38.9 162.9 975 0 9 -- Chart
1958 8 8 12 41.5 163.5 975 0 9 -- Chart
1958 8 8 18 44.6 164.3 980 0 9 -- Chart
1958 8 9 00 46.0 166.0 980 0 9 -- Chart
1958 8 9 06 48.0 166.0 985 0 9 -- Chart
1958 8 9 12 50.0 167.0 990 0 9 -- Chart
1958 8 9 18 51.5 168.5 990 0 6 -- Chart
1958 8 10 00 53.9 169.1 992 0 6 -- Chart
Japan Meteorological Agency Best Track Data | Correction Date : 1989-06-01
< Typhoon 195814 1958 Season Typhoon 195816 >

Help